Time;durP1;ratioP1;P1;durP2;ratioP2;P2;SDS_P1;SDS_P2;PMS_P1;PMS_P2;Temp;Humidity;BMP_temperature;BMP_pressure;BME280_temperature;BME280_humidity;BME280_pressure;Samples;Min_cycle;Max_cycle;Signal;HPM_P1;HPM_P2
2023/08/21 00:00:23;;;;;;;8.18;4.15;;;20.10;78.40;;;;;;5018030;28;20029;-78
2023/08/21 00:02:49;;;;;;;9.70;4.40;;;20.00;78.60;;;;;;5016213;28;20034;-77
2023/08/21 00:05:14;;;;;;;9.35;4.40;;;20.00;78.80;;;;;;5005842;28;20427;-78
2023/08/21 00:07:40;;;;;;;10.20;4.43;;;20.00;79.10;;;;;;5013572;28;20498;-78
2023/08/21 00:10:07;;;;;;;11.45;4.45;;;20.00;79.20;;;;;;5001666;28;20034;-79
2023/08/21 00:12:32;;;;;;;10.98;4.68;;;20.00;79.20;;;;;;4993294;28;20034;-78
2023/08/21 00:14:58;;;;;;;12.57;4.05;;;20.00;79.10;;;;;;4982349;28;20264;-78
2023/08/21 00:17:24;;;;;;;8.90;4.30;;;20.00;79.10;;;;;;4987326;28;20483;-78
2023/08/21 00:19:49;;;;;;;10.68;4.40;;;20.00;79.20;;;;;;4982458;28;20041;-77
2023/08/21 00:22:15;;;;;;;10.43;4.90;;;20.00;79.10;;;;;;4987756;28;20260;-78
2023/08/21 00:24:41;;;;;;;11.75;4.68;;;19.90;79.10;;;;;;4983571;28;20043;-77
2023/08/21 00:27:06;;;;;;;12.07;4.43;;;19.80;79.20;;;;;;4979635;28;20042;-77
2023/08/21 00:29:32;;;;;;;11.10;4.78;;;19.80;79.30;;;;;;4987528;28;20490;-76
2023/08/21 00:31:58;;;;;;;11.60;4.50;;;19.70;79.60;;;;;;4985498;28;20072;-79
2023/08/21 00:34:23;;;;;;;11.13;4.38;;;19.70;79.60;;;;;;4982877;28;20092;-78
2023/08/21 00:36:49;;;;;;;10.63;4.13;;;19.60;79.80;;;;;;4987412;28;20483;-79
2023/08/21 00:39:15;;;;;;;7.85;3.92;;;19.60;79.90;;;;;;5000173;28;20036;-79
2023/08/21 00:41:41;;;;;;;9.48;4.40;;;19.60;80.00;;;;;;5008969;28;20036;-78
2023/08/21 00:44:07;;;;;;;12.02;4.43;;;19.50;80.00;;;;;;5015302;28;20030;-76
2023/08/21 00:46:34;;;;;;;9.02;3.97;;;19.50;80.10;;;;;;5011870;28;20036;-78
2023/08/21 00:48:59;;;;;;;11.05;5.18;;;19.50;80.10;;;;;;5000496;28;20042;-77
2023/08/21 00:51:25;;;;;;;10.70;4.07;;;19.50;80.30;;;;;;4985505;28;20084;-76
2023/08/21 00:53:51;;;;;;;11.98;5.20;;;19.40;80.40;;;;;;4997193;28;20033;-77
2023/08/21 00:56:17;;;;;;;9.10;4.32;;;19.40;80.60;;;;;;5010321;28;20034;-77
2023/08/21 00:58:43;;;;;;;12.38;4.63;;;19.40;80.60;;;;;;5002132;28;20088;-77
2023/08/21 01:01:09;;;;;;;9.60;4.05;;;19.40;80.50;;;;;;5002920;28;20022;-78
2023/08/21 01:03:34;;;;;;;10.25;4.55;;;19.30;80.60;;;;;;5005638;28;20372;-78
2023/08/21 01:06:00;;;;;;;11.90;4.57;;;19.30;80.70;;;;;;5006273;28;20044;-77
2023/08/21 01:08:42;;;;;;;10.57;4.13;;;19.30;80.90;;;;;;5006118;28;20235;-78
2023/08/21 01:11:34;;;;;;;10.02;4.53;;;19.30;80.90;;;;;;5008213;28;20065;-77
2023/08/21 01:14:36;;;;;;;9.13;4.20;;;19.30;81.10;;;;;;4998666;28;20033;-78
2023/08/21 01:17:07;;;;;;;8.02;3.70;;;19.30;81.10;;;;;;5001153;28;20617;-78
2023/08/21 01:19:40;;;;;;;10.20;4.78;;;19.30;81.00;;;;;;4997765;28;20601;-79
2023/08/21 01:22:06;;;;;;;10.23;4.15;;;19.20;81.00;;;;;;5003971;28;20050;-78
2023/08/21 01:24:33;;;;;;;10.68;3.95;;;19.20;81.40;;;;;;4999943;28;20375;-78
2023/08/21 01:26:59;;;;;;;8.88;3.65;;;19.10;81.40;;;;;;5005020;28;20065;-78
2023/08/21 01:29:25;;;;;;;11.13;4.55;;;19.10;81.60;;;;;;5035461;23;20141;-83
2023/08/21 01:32:18;;;;;;;10.02;4.68;;;19.10;81.60;;;;;;4998288;28;20038;-83
2023/08/21 01:34:46;;;;;;;9.40;4.00;;;19.10;81.80;;;;;;5006171;28;20038;-82
2023/08/21 01:37:13;;;;;;;9.27;3.58;;;19.10;82.00;;;;;;4995274;28;20491;-83
2023/08/21 01:39:38;;;;;;;9.93;3.88;;;19.10;82.10;;;;;;4990141;28;20046;-82
2023/08/21 01:42:04;;;;;;;9.95;4.35;;;19.10;82.20;;;;;;5001877;28;20474;-82
2023/08/21 01:44:30;;;;;;;9.93;3.90;;;19.10;82.20;;;;;;4977369;28;20035;-82
2023/08/21 01:46:55;;;;;;;10.43;3.75;;;19.20;81.80;;;;;;4969205;28;20446;-82
2023/08/21 01:49:21;;;;;;;11.23;3.95;;;19.20;82.00;;;;;;4982688;28;20519;-82
2023/08/21 01:51:47;;;;;;;11.32;4.40;;;19.20;82.00;;;;;;4998202;28;20085;-82
2023/08/21 01:54:13;;;;;;;10.07;4.35;;;19.20;81.90;;;;;;4996475;28;20433;-82
2023/08/21 01:56:38;;;;;;;11.40;4.50;;;19.20;81.60;;;;;;5012467;28;20046;-82
2023/08/21 01:59:06;;;;;;;9.23;4.35;;;19.20;81.60;;;;;;4998704;28;20034;-82
2023/08/21 02:01:32;;;;;;;10.48;4.63;;;19.20;81.60;;;;;;4987394;28;20046;-82
2023/08/21 02:03:57;;;;;;;11.68;4.78;;;19.20;81.60;;;;;;5002129;28;20038;-82
2023/08/21 02:06:23;;;;;;;12.00;4.90;;;19.20;81.60;;;;;;4993580;28;20054;-82
2023/08/21 02:08:49;;;;;;;9.27;3.92;;;19.20;81.70;;;;;;4992863;28;20073;-82
2023/08/21 02:11:15;;;;;;;9.52;3.85;;;19.10;81.80;;;;;;4991864;28;20085;-82
2023/08/21 02:13:40;;;;;;;10.25;4.50;;;19.10;81.90;;;;;;4989791;28;20049;-81
2023/08/21 02:16:06;;;;;;;11.73;4.70;;;19.10;82.10;;;;;;4994748;28;20039;-82
2023/08/21 02:18:32;;;;;;;10.88;4.45;;;19.10;82.10;;;;;;5004775;28;20056;-81
2023/08/21 02:20:59;;;;;;;11.13;4.75;;;19.00;82.00;;;;;;4995548;28;20117;-81
2023/08/21 02:23:25;;;;;;;13.40;5.40;;;18.90;81.50;;;;;;5004536;28;20030;-82
2023/08/21 02:25:51;;;;;;;11.13;5.20;;;18.80;81.30;;;;;;4996251;28;20129;-82
2023/08/21 02:28:17;;;;;;;9.70;4.43;;;18.90;81.00;;;;;;4993722;28;20462;-81
2023/08/21 02:30:43;;;;;;;11.82;4.43;;;18.80;81.00;;;;;;4999403;28;20104;-81
2023/08/21 02:33:09;;;;;;;11.40;4.70;;;18.80;80.90;;;;;;4986283;28;20034;-81
2023/08/21 02:35:35;;;;;;;13.55;4.78;;;18.80;80.80;;;;;;4997156;28;20070;-81
2023/08/21 02:38:00;;;;;;;11.40;4.97;;;18.70;80.80;;;;;;5003942;28;20434;-81
2023/08/21 02:40:26;;;;;;;11.38;4.50;;;18.70;80.40;;;;;;4994246;28;20522;-81
2023/08/21 02:42:52;;;;;;;9.93;4.82;;;18.70;80.30;;;;;;5000217;28;20026;-81
2023/08/21 02:45:19;;;;;;;10.00;5.07;;;18.70;80.30;;;;;;4995022;28;20034;-81
2023/08/21 02:47:44;;;;;;;10.98;4.78;;;18.70;80.30;;;;;;4995653;28;20030;-81
2023/08/21 02:50:10;;;;;;;11.65;5.15;;;18.60;80.30;;;;;;4987946;28;20468;-81
2023/08/21 02:52:36;;;;;;;10.27;5.28;;;18.60;80.10;;;;;;4991047;28;20031;-81
2023/08/21 02:55:03;;;;;;;15.90;5.13;;;18.60;80.10;;;;;;4992342;28;20467;-81
2023/08/21 02:57:29;;;;;;;13.48;5.30;;;18.60;80.10;;;;;;4990524;28;20038;-81
2023/08/21 02:59:55;;;;;;;12.57;5.70;;;18.60;80.20;;;;;;4985950;28;20042;-82
2023/08/21 03:02:21;;;;;;;11.30;5.30;;;18.50;80.30;;;;;;4995976;28;20041;-82
2023/08/21 03:04:47;;;;;;;12.40;4.93;;;18.40;80.30;;;;;;4993072;28;20043;-82
2023/08/21 03:07:14;;;;;;;12.00;5.53;;;18.40;80.50;;;;;;4997744;28;20475;-82
2023/08/21 03:09:40;;;;;;;14.68;5.55;;;18.40;80.60;;;;;;4994048;28;20030;-81
2023/08/21 03:12:07;;;;;;;12.55;5.05;;;18.40;80.70;;;;;;4996575;28;20042;-82
2023/08/21 03:14:33;;;;;;;10.27;5.25;;;18.30;80.80;;;;;;4993969;28;20069;-81
2023/08/21 03:16:59;;;;;;;15.13;6.28;;;18.30;80.90;;;;;;4995432;28;20061;-81
2023/08/21 03:19:24;;;;;;;11.95;5.75;;;18.30;81.00;;;;;;4996024;28;20089;-81
2023/08/21 03:21:51;;;;;;;11.80;5.75;;;18.30;81.10;;;;;;5000469;28;20130;-80
2023/08/21 03:24:17;;;;;;;12.57;5.38;;;18.20;81.10;;;;;;4992847;28;20463;-81
2023/08/21 03:26:43;;;;;;;14.55;6.18;;;18.30;81.20;;;;;;4990099;28;20030;-80
2023/08/21 03:29:08;;;;;;;12.70;6.20;;;18.20;81.20;;;;;;4996712;28;20038;-81
2023/08/21 03:31:34;;;;;;;16.70;6.40;;;18.30;81.10;;;;;;4992556;28;20500;-80
2023/08/21 03:34:00;;;;;;;13.07;6.28;;;18.30;81.00;;;;;;4994517;28;20042;-82
2023/08/21 03:36:31;;;;;;;14.30;5.72;;;18.20;81.00;;;;;;4999434;28;20060;-82
2023/08/21 03:39:01;;;;;;;14.32;6.80;;;18.10;81.20;;;;;;4999761;28;20068;-82
2023/08/21 03:41:27;;;;;;;14.15;7.13;;;18.20;81.20;;;;;;4987480;28;20042;-82
2023/08/21 03:43:53;;;;;;;13.88;6.45;;;18.10;81.50;;;;;;4995511;28;20069;-82
2023/08/21 03:46:19;;;;;;;14.18;6.50;;;18.00;81.60;;;;;;4993521;28;20039;-82
2023/08/21 03:48:45;;;;;;;12.50;6.78;;;18.00;81.90;;;;;;4992358;28;20437;-81
2023/08/21 03:51:11;;;;;;;16.77;7.50;;;17.90;82.10;;;;;;4989129;28;20050;-82
2023/08/21 03:53:36;;;;;;;14.00;6.93;;;17.90;82.30;;;;;;4984903;28;20072;-81
2023/08/21 03:56:02;;;;;;;13.23;6.55;;;17.80;82.50;;;;;;4988110;28;20038;-82
2023/08/21 03:58:28;;;;;;;14.02;6.80;;;17.80;82.60;;;;;;4998502;28;20035;-82
2023/08/21 04:00:54;;;;;;;14.32;6.78;;;17.70;82.60;;;;;;4991645;28;20380;-82
2023/08/21 04:03:20;;;;;;;11.93;6.22;;;17.70;82.90;;;;;;4993656;28;20049;-82
2023/08/21 04:05:46;;;;;;;13.35;6.53;;;17.70;83.00;;;;;;4997563;28;20145;-82
2023/08/21 04:08:12;;;;;;;11.85;6.18;;;17.70;83.00;;;;;;4993217;28;20109;-82
2023/08/21 04:10:41;;;;;;;13.55;6.38;;;17.70;83.10;;;;;;4995439;28;20057;-81
2023/08/21 04:13:07;;;;;;;12.70;6.00;;;17.70;83.10;;;;;;4971131;28;20031;-82
2023/08/21 04:15:35;;;;;;;14.50;6.35;;;17.60;83.20;;;;;;4972544;28;20098;-82
2023/08/21 04:18:00;;;;;;;14.13;7.00;;;17.70;83.20;;;;;;4971665;28;20963;-81
2023/08/21 04:20:26;;;;;;;13.73;6.13;;;17.60;83.10;;;;;;4977451;28;20061;-81
2023/08/21 04:22:52;;;;;;;14.93;6.82;;;17.60;83.00;;;;;;4991269;28;20034;-81
2023/08/21 04:25:18;;;;;;;11.70;6.38;;;17.60;83.00;;;;;;4998083;28;20041;-82
2023/08/21 04:27:44;;;;;;;14.85;6.55;;;17.60;83.20;;;;;;4990889;28;20585;-82
2023/08/21 04:30:10;;;;;;;12.60;7.10;;;17.50;83.50;;;;;;4991421;28;20062;-81
2023/08/21 04:32:36;;;;;;;14.20;6.55;;;17.50;83.60;;;;;;4983791;28;20023;-81
2023/08/21 04:35:01;;;;;;;13.65;5.85;;;17.40;83.90;;;;;;5001446;28;20381;-81
2023/08/21 04:37:27;;;;;;;12.05;5.97;;;17.60;83.70;;;;;;4997541;28;20030;-81
2023/08/21 04:39:53;;;;;;;14.98;7.13;;;17.60;83.60;;;;;;4991045;28;20133;-81
2023/08/21 04:42:19;;;;;;;15.55;7.03;;;17.60;83.50;;;;;;4990841;28;20567;-81
2023/08/21 04:44:45;;;;;;;16.80;7.63;;;17.60;83.30;;;;;;4998122;28;20122;-83
2023/08/21 04:47:22;;;;;;;14.70;7.38;;;17.60;83.30;;;;;;4987726;28;20133;-82
2023/08/21 04:49:49;;;;;;;16.55;8.88;;;17.60;83.30;;;;;;4993092;28;20129;-81
2023/08/21 04:52:15;;;;;;;19.00;8.80;;;17.60;83.40;;;;;;4985110;28;20133;-82
2023/08/21 04:54:41;;;;;;;20.05;9.43;;;17.60;83.50;;;;;;4992905;28;20504;-82
2023/08/21 04:57:07;;;;;;;18.10;8.63;;;17.60;83.40;;;;;;4991429;28;20276;-82
2023/08/21 04:59:32;;;;;;;19.63;8.82;;;17.60;83.60;;;;;;4996720;28;20042;-81
2023/08/21 05:01:58;;;;;;;16.00;8.60;;;17.60;83.70;;;;;;4995139;28;20061;-83
2023/08/21 05:04:24;;;;;;;19.20;9.98;;;17.60;83.90;;;;;;4987959;28;20042;-82
2023/08/21 05:06:49;;;;;;;16.15;9.02;;;17.60;83.90;;;;;;5000821;28;20113;-81
2023/08/21 05:09:15;;;;;;;18.83;10.52;;;17.60;84.00;;;;;;4993104;28;20044;-81
2023/08/21 05:11:40;;;;;;;18.08;9.57;;;17.60;84.10;;;;;;4998993;28;20264;-80
2023/08/21 05:14:06;;;;;;;20.90;10.60;;;17.60;84.40;;;;;;4987397;28;20049;-82
2023/08/21 05:16:32;;;;;;;17.60;9.23;;;17.60;84.50;;;;;;4992008;28;20519;-82
2023/08/21 05:18:58;;;;;;;18.75;9.95;;;17.60;84.70;;;;;;4998868;28;20045;-82
2023/08/21 05:21:23;;;;;;;17.55;9.98;;;17.70;84.60;;;;;;4993619;28;20136;-82
2023/08/21 05:23:49;;;;;;;19.70;10.45;;;17.70;84.70;;;;;;4993235;28;20073;-82
2023/08/21 05:26:15;;;;;;;21.70;11.07;;;17.70;84.60;;;;;;4992499;28;20038;-82
2023/08/21 05:28:40;;;;;;;22.92;11.20;;;17.80;84.50;;;;;;4994809;28;20084;-81
2023/08/21 05:31:06;;;;;;;23.15;11.90;;;17.90;84.40;;;;;;4988313;28;20046;-82
2023/08/21 05:33:32;;;;;;;22.80;11.75;;;18.00;84.20;;;;;;4990932;28;20042;-82
2023/08/21 05:35:57;;;;;;;24.05;13.25;;;18.10;84.30;;;;;;4988167;28;20048;-81
2023/08/21 05:38:23;;;;;;;21.75;11.50;;;18.10;84.40;;;;;;4998561;28;20042;-81
2023/08/21 05:40:49;;;;;;;24.20;12.43;;;18.20;84.30;;;;;;4994189;28;20030;-81
2023/08/21 05:43:16;;;;;;;19.35;10.70;;;18.30;84.10;;;;;;4992037;28;20022;-81
2023/08/21 05:45:42;;;;;;;20.58;11.88;;;18.40;84.10;;;;;;5005536;28;20500;-81
2023/08/21 05:48:08;;;;;;;21.02;11.07;;;18.40;83.80;;;;;;4985985;28;20038;-82
2023/08/21 05:50:36;;;;;;;19.58;11.23;;;18.50;83.90;;;;;;4985047;28;20061;-81
2023/08/21 05:53:06;;;;;;;18.45;10.85;;;18.60;83.80;;;;;;4991650;28;20026;-82
2023/08/21 05:55:32;;;;;;;20.83;11.50;;;18.60;83.40;;;;;;5002219;28;20031;-82
2023/08/21 05:57:58;;;;;;;19.80;10.02;;;18.70;83.30;;;;;;4999415;28;20030;-83
2023/08/21 06:00:23;;;;;;;31.58;13.48;;;18.80;83.20;;;;;;5002449;28;20030;-82
2023/08/21 06:02:49;;;;;;;23.50;13.65;;;18.80;82.50;;;;;;5007889;28;20074;-82
2023/08/21 06:05:15;;;;;;;26.05;14.95;;;18.70;83.00;;;;;;5006539;28;20338;-81
2023/08/21 06:07:41;;;;;;;31.65;13.77;;;18.60;83.30;;;;;;5002131;28;20640;-81
2023/08/21 06:10:08;;;;;;;29.38;14.07;;;18.60;84.00;;;;;;5004900;28;20033;-81
2023/08/21 06:12:34;;;;;;;31.50;14.70;;;18.70;83.70;;;;;;4990765;28;20058;-82
2023/08/21 06:14:59;;;;;;;35.65;17.33;;;18.70;83.50;;;;;;4990409;28;20101;-81
2023/08/21 06:17:28;;;;;;;41.47;18.42;;;18.80;83.50;;;;;;4998088;28;20030;-82
2023/08/21 06:19:53;;;;;;;37.88;18.85;;;18.60;83.90;;;;;;4995532;28;20042;-82
2023/08/21 06:22:19;;;;;;;47.10;23.55;;;18.70;84.10;;;;;;4976533;28;20035;-83
2023/08/21 06:24:45;;;;;;;44.03;23.05;;;18.60;84.40;;;;;;4967830;28;20122;-81
2023/08/21 06:27:10;;;;;;;49.53;25.65;;;18.60;84.90;;;;;;4972453;28;20084;-82
2023/08/21 06:29:37;;;;;;;51.75;24.67;;;18.50;85.30;;;;;;4986490;28;20059;-81
2023/08/21 06:32:03;;;;;;;48.22;25.83;;;18.40;85.60;;;;;;4991179;28;20121;-82
2023/08/21 06:34:29;;;;;;;50.97;28.25;;;18.40;85.90;;;;;;4994423;28;20042;-81
2023/08/21 06:36:54;;;;;;;54.20;27.52;;;18.30;86.10;;;;;;4998334;28;20394;-81
2023/08/21 06:39:20;;;;;;;53.95;29.45;;;18.30;86.50;;;;;;4998963;28;20038;-82
2023/08/21 06:41:46;;;;;;;44.00;24.35;;;18.50;86.40;;;;;;4993300;28;20064;-81
2023/08/21 06:44:11;;;;;;;51.53;27.60;;;18.50;86.20;;;;;;4992951;28;20062;-82
2023/08/21 06:46:37;;;;;;;48.92;26.48;;;18.60;86.10;;;;;;4998066;28;20117;-81
2023/08/21 06:49:03;;;;;;;47.95;26.50;;;18.60;86.30;;;;;;5005473;28;20109;-83
2023/08/21 06:51:29;;;;;;;43.22;24.70;;;18.60;86.00;;;;;;4991937;28;20834;-81
2023/08/21 06:53:55;;;;;;;40.60;23.77;;;18.70;85.90;;;;;;4994569;28;20364;-82
2023/08/21 06:56:21;;;;;;;44.53;23.75;;;18.60;86.00;;;;;;4997515;28;20050;-82
2023/08/21 06:58:46;;;;;;;43.90;25.30;;;18.60;86.40;;;;;;4996478;28;20479;-81
2023/08/21 07:01:12;;;;;;;37.80;23.88;;;18.60;86.40;;;;;;4993677;28;20541;-80
2023/08/21 07:03:38;;;;;;;39.35;25.58;;;18.60;86.10;;;;;;5000622;28;20038;-81
2023/08/21 07:06:03;;;;;;;47.95;27.48;;;18.70;86.40;;;;;;4998280;28;20049;-82
2023/08/21 07:08:29;;;;;;;46.25;26.60;;;18.60;86.20;;;;;;4998608;28;20057;-82
2023/08/21 07:10:55;;;;;;;41.65;25.70;;;18.80;86.30;;;;;;4997387;28;20029;-82
2023/08/21 07:13:21;;;;;;;37.75;25.15;;;18.90;86.50;;;;;;4993220;28;20050;-81
2023/08/21 07:15:46;;;;;;;43.45;26.90;;;18.80;86.00;;;;;;5000579;28;20045;-82
2023/08/21 07:18:13;;;;;;;43.75;27.08;;;18.80;86.00;;;;;;4999778;28;20089;-84
2023/08/21 07:20:38;;;;;;;41.42;25.08;;;18.80;85.80;;;;;;4999069;28;20498;-81
2023/08/21 07:23:04;;;;;;;51.50;27.55;;;18.70;86.20;;;;;;4995316;28;20030;-82
2023/08/21 07:25:30;;;;;;;48.92;28.58;;;18.70;86.60;;;;;;4996886;28;20025;-82
2023/08/21 07:27:56;;;;;;;41.80;26.15;;;18.80;86.60;;;;;;4992313;28;20117;-81
2023/08/21 07:30:22;;;;;;;41.45;25.33;;;18.90;86.20;;;;;;4996509;28;20065;-82
2023/08/21 07:32:48;;;;;;;42.25;23.88;;;18.90;86.30;;;;;;4997703;28;20034;-81
2023/08/21 07:35:14;;;;;;;35.83;23.65;;;19.00;86.00;;;;;;4995931;28;20042;-83
2023/08/21 07:37:44;;;;;;;37.35;23.27;;;19.00;85.90;;;;;;4999255;28;20023;-83
2023/08/21 07:40:10;;;;;;;37.67;23.30;;;19.00;85.90;;;;;;4991602;28;20121;-82
2023/08/21 07:42:35;;;;;;;30.60;22.80;;;19.00;85.90;;;;;;4995881;28;20149;-82
2023/08/21 07:45:01;;;;;;;29.63;22.10;;;19.10;85.90;;;;;;4992852;28;20718;-81
2023/08/21 07:47:27;;;;;;;32.03;22.33;;;19.10;86.00;;;;;;4986650;28;20117;-82
2023/08/21 07:49:53;;;;;;;35.15;22.75;;;19.20;85.80;;;;;;4986919;28;20397;-82
2023/08/21 07:52:19;;;;;;;38.67;24.17;;;19.20;85.20;;;;;;4987403;28;20097;-83
2023/08/21 07:54:45;;;;;;;33.13;22.75;;;19.10;85.50;;;;;;4987876;28;20030;-83
2023/08/21 07:57:11;;;;;;;36.67;23.30;;;19.30;85.50;;;;;;4991017;28;20069;-85
2023/08/21 07:59:37;;;;;;;35.17;23.70;;;19.60;85.20;;;;;;4996494;28;20561;-83
2023/08/21 08:02:04;;;;;;;34.33;22.48;;;19.30;85.00;;;;;;4982282;28;20077;-82
2023/08/21 08:04:30;;;;;;;42.88;25.33;;;19.20;85.40;;;;;;4985488;28;20642;-82
2023/08/21 08:06:56;;;;;;;38.28;23.98;;;19.20;85.60;;;;;;4999807;28;20042;-81
2023/08/21 08:09:21;;;;;;;38.95;23.85;;;19.30;85.60;;;;;;4990954;28;20034;-82
2023/08/21 08:11:47;;;;;;;36.08;23.45;;;19.50;85.40;;;;;;4995073;28;20046;-82
2023/08/21 08:14:13;;;;;;;41.80;23.45;;;19.60;84.50;;;;;;4993152;28;20032;-82
2023/08/21 08:16:38;;;;;;;38.63;24.13;;;19.70;84.90;;;;;;4993890;28;20069;-82
2023/08/21 08:19:04;;;;;;;37.03;23.20;;;19.80;84.30;;;;;;4996782;28;20046;-82
2023/08/21 08:21:30;;;;;;;34.25;21.58;;;20.00;84.10;;;;;;4990391;28;20034;-82
2023/08/21 08:23:56;;;;;;;38.13;23.83;;;20.20;84.30;;;;;;4992866;28;20041;-83
2023/08/21 08:26:22;;;;;;;36.30;23.90;;;20.40;83.20;;;;;;4994510;28;20090;-82
2023/08/21 08:28:48;;;;;;;35.88;23.60;;;20.60;82.60;;;;;;4995339;28;20478;-83
2023/08/21 08:31:20;;;;;;;33.15;21.42;;;20.70;81.30;;;;;;4989165;28;20431;-83
2023/08/21 08:33:46;;;;;;;33.53;21.05;;;20.80;80.70;;;;;;4987100;28;20383;-83
2023/08/21 08:36:11;;;;;;;35.15;20.92;;;21.00;80.90;;;;;;4990926;28;20042;-82
2023/08/21 08:38:37;;;;;;;33.70;21.73;;;21.10;80.10;;;;;;4995200;28;20061;-83
2023/08/21 08:41:10;;;;;;;31.77;22.23;;;21.10;80.00;;;;;;4983025;28;20491;-82
2023/08/21 08:43:40;;;;;;;33.15;22.15;;;21.10;79.50;;;;;;4992465;28;20122;-83
2023/08/21 08:46:07;;;;;;;34.30;23.45;;;21.40;79.10;;;;;;4996222;28;20305;-82
2023/08/21 08:48:37;;;;;;;32.30;21.27;;;21.80;77.50;;;;;;4991141;28;20426;-83
2023/08/21 08:51:06;;;;;;;34.63;23.20;;;21.70;78.00;;;;;;4997700;28;20130;-83
2023/08/21 08:53:32;;;;;;;36.10;22.48;;;21.60;78.50;;;;;;4995452;28;20406;-81
2023/08/21 08:55:58;;;;;;;40.47;24.40;;;21.90;78.60;;;;;;4988819;28;20069;-82
2023/08/21 08:58:24;;;;;;;37.63;23.15;;;21.80;77.70;;;;;;4994211;28;20053;-82
2023/08/21 09:00:50;;;;;;;34.70;22.02;;;22.10;77.80;;;;;;4987928;28;20085;-81
2023/08/21 09:03:16;;;;;;;36.65;24.05;;;22.30;76.20;;;;;;4994881;28;20418;-82
2023/08/21 09:05:42;;;;;;;34.78;23.55;;;22.40;76.10;;;;;;4989404;28;20046;-82
2023/08/21 09:08:11;;;;;;;35.72;21.67;;;22.20;76.80;;;;;;4999184;28;20113;-83
2023/08/21 09:10:38;;;;;;;32.10;22.63;;;22.30;75.60;;;;;;4991991;28;20034;-83
2023/08/21 09:13:18;;;;;;;37.42;22.65;;;22.20;76.30;;;;;;4994993;28;20019;-82
2023/08/21 09:15:52;;;;;;;34.47;23.25;;;22.20;75.80;;;;;;4995438;28;20053;-82
2023/08/21 09:18:18;;;;;;;31.77;22.38;;;22.30;76.10;;;;;;4992598;28;20034;-82
2023/08/21 09:20:44;;;;;;;31.85;22.13;;;22.40;75.70;;;;;;4994270;28;20030;-83
2023/08/21 09:23:14;;;;;;;31.92;23.80;;;22.70;74.90;;;;;;4992788;28;20104;-83
2023/08/21 09:25:41;;;;;;;35.70;22.95;;;23.10;74.50;;;;;;4986771;28;20451;-82
2023/08/21 09:28:08;;;;;;;34.13;22.42;;;23.00;72.90;;;;;;4991659;28;20351;-83
2023/08/21 09:30:51;;;;;;;33.15;21.42;;;22.90;73.50;;;;;;4993411;28;20074;-82
2023/08/21 09:33:21;;;;;;;31.45;21.20;;;23.10;74.30;;;;;;4990414;28;20069;-82
2023/08/21 09:35:47;;;;;;;29.00;20.08;;;23.10;72.90;;;;;;4987739;28;20042;-83
2023/08/21 09:38:16;;;;;;;34.72;22.63;;;23.00;73.80;;;;;;4993413;28;20026;-83
2023/08/21 09:40:43;;;;;;;34.08;21.55;;;23.10;73.50;;;;;;4989785;28;20127;-82
2023/08/21 09:43:13;;;;;;;34.05;21.25;;;23.50;72.90;;;;;;4989803;28;20062;-82
2023/08/21 09:45:39;;;;;;;34.72;21.35;;;23.60;72.40;;;;;;4972197;28;20046;-83
2023/08/21 09:48:05;;;;;;;30.90;19.92;;;23.60;72.90;;;;;;4967682;28;20440;-83
2023/08/21 09:50:32;;;;;;;30.15;19.55;;;23.80;72.40;;;;;;4976413;28;20018;-83
2023/08/21 09:52:58;;;;;;;32.03;21.52;;;23.90;71.30;;;;;;4978890;28;20383;-82
2023/08/21 09:55:29;;;;;;;28.92;19.13;;;23.80;70.80;;;;;;4966248;28;20035;-83
2023/08/21 09:58:00;;;;;;;26.45;18.15;;;23.80;71.30;;;;;;4981977;28;20034;-82
2023/08/21 10:00:34;;;;;;;25.30;19.15;;;24.10;70.40;;;;;;4975153;28;20050;-82
2023/08/21 10:03:03;;;;;;;26.80;16.35;;;24.20;70.00;;;;;;4977445;28;20034;-82
2023/08/21 10:05:31;;;;;;;25.73;16.90;;;24.60;69.00;;;;;;4958142;28;20487;-83
2023/08/21 10:08:06;;;;;;;25.63;16.70;;;24.50;66.80;;;;;;4965660;28;20038;-82
2023/08/21 10:10:34;;;;;;;25.35;15.65;;;24.40;67.60;;;;;;4968963;28;20299;-82
2023/08/21 10:13:02;;;;;;;25.48;15.30;;;24.40;67.20;;;;;;4974237;28;20019;-83
2023/08/21 10:15:29;;;;;;;23.63;15.73;;;24.50;67.10;;;;;;4967404;28;20046;-84
2023/08/21 10:17:55;;;;;;;23.85;13.35;;;24.90;65.60;;;;;;4977565;28;20140;-81
2023/08/21 10:20:23;;;;;;;19.10;12.45;;;25.00;63.90;;;;;;4967348;28;20435;-83
2023/08/21 10:22:53;;;;;;;20.58;11.15;;;25.10;64.70;;;;;;4970950;28;20130;-84
2023/08/21 10:25:25;;;;;;;19.58;11.90;;;25.20;61.90;;;;;;4968034;28;20031;-83
2023/08/21 10:27:56;;;;;;;19.45;10.95;;;25.40;62.00;;;;;;4980370;28;20395;-83
2023/08/21 10:30:28;;;;;;;16.48;11.75;;;25.60;63.20;;;;;;4987640;28;20097;-83
2023/08/21 10:32:57;;;;;;;16.17;10.57;;;25.60;62.10;;;;;;4987531;28;20057;-86
2023/08/21 10:35:34;;;;;;;15.95;8.80;;;25.70;60.10;;;;;;4989049;28;20030;-83
2023/08/21 10:38:17;;;;;;;17.20;9.68;;;25.80;61.20;;;;;;4999429;28;20026;-83
2023/08/21 10:41:04;;;;;;;16.27;10.60;;;26.00;61.90;;;;;;4988771;28;20065;-83
2023/08/21 10:43:41;;;;;;;20.92;11.32;;;25.60;60.80;;;;;;4988958;28;20120;-82
2023/08/21 10:46:08;;;;;;;16.83;10.90;;;25.70;61.10;;;;;;4992959;28;20482;-83
2023/08/21 10:48:35;;;;;;;16.80;11.45;;;25.80;61.40;;;;;;4994769;28;20429;-82
2023/08/21 10:51:03;;;;;;;18.38;11.25;;;26.20;59.80;;;;;;4981899;28;20050;-82
2023/08/21 10:53:30;;;;;;;15.70;10.27;;;26.40;58.80;;;;;;4995496;28;20062;-83
2023/08/21 10:55:57;;;;;;;15.30;9.02;;;26.40;59.70;;;;;;4996653;28;20454;-83
2023/08/21 10:58:23;;;;;;;11.73;6.70;;;26.00;58.40;;;;;;4995521;28;20043;-83
2023/08/21 11:00:59;;;;;;;12.63;7.32;;;26.10;59.80;;;;;;4997724;28;20065;-83
2023/08/21 11:03:25;;;;;;;10.27;6.13;;;26.00;57.80;;;;;;5002087;28;20037;-83
2023/08/21 11:06:02;;;;;;;10.27;5.88;;;26.30;56.00;;;;;;4997989;28;20038;-82
2023/08/21 11:27:54;;;;;;;11.02;7.72;;;26.40;55.90;;;;;;5017958;27;20436;-78
2023/08/21 11:30:22;;;;;;;12.50;7.88;;;26.80;54.40;;;;;;4983273;28;20495;-78
2023/08/21 11:32:48;;;;;;;15.23;9.18;;;26.60;55.00;;;;;;4977607;28;20055;-77
2023/08/21 11:35:14;;;;;;;15.00;11.00;;;26.90;55.70;;;;;;4984860;28;20085;-77
2023/08/21 11:37:46;;;;;;;15.27;10.95;;;26.80;55.40;;;;;;4974692;28;20038;-77
2023/08/21 11:40:14;;;;;;;13.77;11.32;;;26.90;56.20;;;;;;4963650;28;20035;-77
2023/08/21 11:42:40;;;;;;;16.00;11.10;;;26.90;55.40;;;;;;4962302;28;20050;-77
2023/08/21 11:45:06;;;;;;;14.20;10.13;;;26.90;56.50;;;;;;4965838;28;20023;-77
2023/08/21 11:47:33;;;;;;;15.15;10.20;;;27.20;54.80;;;;;;4987841;28;20039;-77
2023/08/21 11:50:06;;;;;;;14.85;11.38;;;27.30;54.80;;;;;;4968996;28;20031;-78
2023/08/21 11:52:32;;;;;;;15.20;10.35;;;27.40;54.70;;;;;;4971976;28;20032;-77
2023/08/21 11:54:58;;;;;;;12.63;10.70;;;27.20;55.00;;;;;;4984539;28;20025;-78
2023/08/21 11:57:24;;;;;;;15.82;11.07;;;27.10;53.90;;;;;;4969866;27;20045;-78
2023/08/21 11:59:54;;;;;;;14.77;12.68;;;27.40;55.40;;;;;;4974334;28;20031;-77
2023/08/21 12:02:28;;;;;;;17.40;13.55;;;27.50;55.30;;;;;;4960001;28;20126;-78
2023/08/21 12:05:06;;;;;;;13.52;10.93;;;27.00;55.00;;;;;;4977932;28;20091;-78
2023/08/21 12:07:33;;;;;;;16.13;9.98;;;27.20;54.20;;;;;;4967021;28;20131;-77
2023/08/21 12:09:59;;;;;;;13.93;10.52;;;27.60;54.50;;;;;;4963202;28;20453;-80
2023/08/21 12:12:25;;;;;;;11.90;9.38;;;27.80;52.80;;;;;;4968328;28;20493;-79
2023/08/21 12:14:50;;;;;;;14.23;9.20;;;27.60;51.30;;;;;;4963379;28;20062;-78
2023/08/21 12:17:16;;;;;;;11.45;8.32;;;27.60;53.00;;;;;;4960875;28;20059;-78
2023/08/21 12:19:43;;;;;;;13.30;9.27;;;27.40;53.60;;;;;;4967051;28;20031;-78
2023/08/21 12:22:09;;;;;;;14.15;11.95;;;27.20;54.90;;;;;;4969833;28;20628;-78
2023/08/21 12:24:35;;;;;;;11.13;9.57;;;27.00;53.70;;;;;;4958028;28;20040;-78
2023/08/21 12:27:00;;;;;;;14.23;10.98;;;27.10;53.70;;;;;;4952086;28;20381;-78
2023/08/21 12:29:26;;;;;;;13.60;10.15;;;27.00;55.10;;;;;;4946561;28;20047;-78
2023/08/21 12:31:52;;;;;;;13.32;9.73;;;27.10;53.80;;;;;;4949743;28;20039;-78
2023/08/21 12:34:18;;;;;;;14.13;8.55;;;27.20;52.80;;;;;;4961936;28;20039;-78
2023/08/21 12:36:43;;;;;;;12.77;8.25;;;27.30;55.60;;;;;;4969854;28;20033;-78
2023/08/21 12:39:44;;;;;;;9.00;7.55;;;27.70;53.90;;;;;;4961102;28;20035;-77
2023/08/21 12:42:14;;;;;;;9.77;7.25;;;27.60;53.10;;;;;;4983663;28;20035;-78
2023/08/21 12:44:51;;;;;;;12.00;8.95;;;27.90;53.20;;;;;;4999546;28;20028;-79
2023/08/21 12:47:17;;;;;;;10.48;7.50;;;28.10;51.00;;;;;;4952208;28;20055;-78
2023/08/21 12:49:45;;;;;;;11.25;7.55;;;28.00;51.40;;;;;;4985764;28;20035;-77
2023/08/21 12:52:12;;;;;;;9.38;7.93;;;27.90;51.70;;;;;;4988646;28;20045;-78